Time;durP1;ratioP1;P1;durP2;ratioP2;P2;SDS_P1;SDS_P2;PMS_P1;PMS_P2;Temp;Humidity;BMP_temperature;BMP_pressure;BME280_temperature;BME280_humidity;BME280_pressure;Samples;Min_cycle;Max_cycle;Signal;HPM_P1;HPM_P2
2021/06/10 00:02:23;;;;;;;7.65;7.03;;;;;;;16.98;95.27;99128.22;5022179;27;111277;-72
2021/06/10 00:04:51;;;;;;;9.27;8.38;;;;;;;17.01;95.06;99135.94;5024207;28;104345;-72
2021/06/10 00:07:20;;;;;;;8.88;8.07;;;;;;;17.03;94.46;99132.16;5023992;27;102572;-72
2021/06/10 00:09:48;;;;;;;9.30;8.50;;;;;;;16.95;95.44;99131.16;5024134;27;103382;-72
2021/06/10 00:12:18;;;;;;;6.90;6.40;;;;;;;17.03;95.07;99125.97;5034763;27;105829;-72
2021/06/10 00:14:48;;;;;;;8.73;8.02;;;;;;;17.03;94.52;99125.97;5018899;28;104426;-73
2021/06/10 00:17:16;;;;;;;9.95;9.15;;;;;;;16.95;94.64;99124.00;5024120;27;103296;-72
2021/06/10 00:19:46;;;;;;;11.43;8.23;;;;;;;16.88;96.47;99127.34;5022388;28;103053;-72
2021/06/10 00:22:14;;;;;;;7.97;7.20;;;;;;;16.89;95.99;99129.06;5023337;27;103890;-72
2021/06/10 00:24:41;;;;;;;7.43;6.82;;;;;;;16.95;94.90;99125.84;5022315;28;104507;-73
2021/06/10 00:27:09;;;;;;;8.63;7.93;;;;;;;16.95;94.66;99137.34;5022375;27;102910;-73
2021/06/10 00:29:36;;;;;;;7.80;6.97;;;;;;;17.00;94.18;99134.25;5022791;28;103160;-72
2021/06/10 00:32:04;;;;;;;9.98;9.05;;;;;;;16.99;93.56;99130.72;5023542;27;103690;-72
2021/06/10 00:34:32;;;;;;;9.50;8.80;;;;;;;16.82;94.57;99139.44;5023585;27;104313;-72
2021/06/10 00:37:00;;;;;;;9.88;9.05;;;;;;;16.66;96.25;99145.31;5023335;27;103022;-73
2021/06/10 00:39:28;;;;;;;7.32;6.80;;;;;;;16.78;95.65;99140.72;5024152;27;103520;-72
2021/06/10 00:41:55;;;;;;;8.68;7.97;;;;;;;16.85;94.27;99139.16;5023359;27;103802;-72
2021/06/10 00:44:23;;;;;;;9.63;8.93;;;;;;;16.74;94.51;99136.63;5024074;27;103128;-72
2021/06/10 00:46:50;;;;;;;11.23;10.32;;;;;;;16.41;97.18;99137.81;5023664;27;102945;-73
2021/06/10 00:49:18;;;;;;;11.10;10.20;;;;;;;16.20;98.82;99137.88;5022877;28;103198;-72
2021/06/10 00:51:46;;;;;;;9.68;8.80;;;;;;;16.20;100.00;99145.88;5021791;27;104838;-72
2021/06/10 00:54:14;;;;;;;11.60;10.63;;;;;;;16.11;99.20;99145.88;5023098;27;103446;-72
2021/06/10 00:56:42;;;;;;;10.00;9.13;;;;;;;16.03;100.00;99143.00;5023583;27;103200;-72
2021/06/10 00:59:09;;;;;;;11.90;10.50;;;;;;;15.79;100.00;99150.47;5023145;27;102760;-73
2021/06/10 01:01:37;;;;;;;11.05;9.93;;;;;;;15.75;100.00;99157.88;5017242;27;104462;-73
2021/06/10 01:04:04;;;;;;;10.65;9.68;;;;;;;15.79;100.00;99153.13;5019818;28;107029;-72
2021/06/10 01:06:40;;;;;;;9.50;8.68;;;;;;;15.88;100.00;99157.69;5018968;28;103002;-72
2021/06/10 01:09:12;;;;;;;9.27;8.45;;;;;;;15.90;100.00;99153.91;5023774;27;104753;-72
2021/06/10 01:11:46;;;;;;;10.65;9.60;;;;;;;15.88;100.00;99155.00;5026434;27;103882;-72
2021/06/10 01:14:23;;;;;;;11.40;10.40;;;;;;;15.75;100.00;99143.75;5021698;28;104584;-72
2021/06/10 01:16:54;;;;;;;10.30;9.40;;;;;;;15.79;100.00;99153.13;5022455;27;103330;-72
2021/06/10 01:19:35;;;;;;;9.57;8.68;;;;;;;15.97;100.00;99146.22;5020876;28;103101;-72
2021/06/10 01:22:06;;;;;;;12.63;11.40;;;;;;;15.96;99.78;99139.19;5015361;27;103333;-72
2021/06/10 01:24:43;;;;;;;13.38;12.10;;;;;;;15.81;100.00;99140.53;5022951;27;104340;-72
2021/06/10 01:27:27;;;;;;;11.25;10.35;;;;;;;15.84;100.00;99150.91;5020278;27;102990;-72
2021/06/10 01:29:59;;;;;;;12.88;11.52;;;;;;;15.87;100.00;99146.16;5023259;27;103081;-72
2021/06/10 01:32:29;;;;;;;11.85;10.73;;;;;;;15.87;99.54;99150.66;5009650;28;112376;-72
2021/06/10 01:34:59;;;;;;;13.30;12.10;;;;;;;15.60;100.00;99144.09;5022510;27;103723;-72
2021/06/10 01:37:27;;;;;;;16.08;14.57;;;;;;;15.52;100.00;99146.53;5011100;28;102900;-72
2021/06/10 01:39:58;;;;;;;15.63;14.05;;;;;;;15.51;100.00;99144.88;5022594;27;103106;-72
2021/06/10 01:42:28;;;;;;;16.00;14.38;;;;;;;15.50;100.00;99143.16;5021968;27;104115;-72
2021/06/10 01:44:58;;;;;;;13.95;12.68;;;;;;;15.52;100.00;99141.22;5020943;28;104990;-72
2021/06/10 01:47:26;;;;;;;15.93;14.35;;;;;;;15.56;100.00;99134.66;5023448;27;103727;-72
2021/06/10 01:49:57;;;;;;;16.40;14.75;;;;;;;15.50;100.00;99127.19;5022908;28;103277;-74
2021/06/10 01:52:27;;;;;;;11.82;10.85;;;;;;;15.61;100.00;99132.44;5022508;27;103259;-72
2021/06/10 01:54:55;;;;;;;14.40;13.20;;;;;;;15.66;100.00;99121.41;5017234;27;103626;-73
2021/06/10 01:57:25;;;;;;;14.73;13.37;;;;;;;15.67;100.00;99123.06;5022410;28;103163;-72
2021/06/10 01:59:55;;;;;;;16.27;14.68;;;;;;;15.52;100.00;99122.56;5009675;28;103393;-73
2021/06/10 02:02:23;;;;;;;16.45;14.40;;;;;;;15.60;100.00;99114.78;5016495;27;104822;-72
2021/06/10 02:04:51;;;;;;;12.80;11.60;;;;;;;15.62;100.00;99125.28;5021602;27;110621;-72
2021/06/10 02:07:19;;;;;;;13.27;12.07;;;;;;;15.62;100.00;99106.66;5021263;27;103158;-71
2021/06/10 02:09:47;;;;;;;15.60;14.30;;;;;;;15.66;100.00;99110.75;5021803;27;104335;-72
2021/06/10 02:12:15;;;;;;;19.63;17.77;;;;;;;15.41;100.00;99113.81;5018953;27;103533;-72
2021/06/10 02:14:43;;;;;;;16.17;14.53;;;;;;;15.41;100.00;99108.47;5017365;28;103321;-72
2021/06/10 02:17:11;;;;;;;15.13;13.82;;;;;;;15.43;100.00;99112.69;5022076;27;103011;-72
2021/06/10 02:19:39;;;;;;;14.63;13.20;;;;;;;15.42;100.00;99111.00;5020776;27;102728;-73
2021/06/10 02:22:07;;;;;;;13.45;12.18;;;;;;;15.50;100.00;99110.38;5022554;27;104551;-72
2021/06/10 02:24:34;;;;;;;12.40;11.25;;;;;;;15.59;100.00;99115.75;5022364;27;103720;-72
2021/06/10 02:27:02;;;;;;;11.30;10.30;;;;;;;15.73;100.00;99105.72;5021921;27;102974;-72
2021/06/10 02:29:29;;;;;;;14.23;13.00;;;;;;;15.70;100.00;99100.66;5021958;27;102953;-74
2021/06/10 02:31:57;;;;;;;14.23;12.83;;;;;;;15.64;100.00;99102.88;5020738;28;105286;-72
2021/06/10 02:34:26;;;;;;;12.02;11.02;;;;;;;15.71;100.00;99105.00;5022146;28;103709;-72
2021/06/10 02:36:54;;;;;;;15.63;14.17;;;;;;;15.57;100.00;99117.72;5020489;27;102959;-72
2021/06/10 02:39:22;;;;;;;14.90;13.60;;;;;;;15.51;100.00;99112.91;4969321;28;102936;-75
2021/06/10 02:41:52;;;;;;;11.43;10.48;;;;;;;15.64;100.00;99102.03;4986008;28;105433;-72
2021/06/10 02:44:20;;;;;;;9.98;9.10;;;;;;;15.73;100.00;99105.72;4987967;28;104347;-73
2021/06/10 02:46:48;;;;;;;9.60;8.80;;;;;;;15.82;99.91;99115.56;4955995;28;104082;-74
2021/06/10 02:49:18;;;;;;;12.10;10.90;;;;;;;15.69;99.54;99104.31;4971749;28;103128;-73
2021/06/10 02:51:47;;;;;;;12.48;11.30;;;;;;;15.61;99.47;99113.78;4974895;28;105268;-73
2021/06/10 02:54:19;;;;;;;10.57;9.67;;;;;;;15.53;100.00;99110.94;4975231;28;103713;-73
2021/06/10 02:56:48;;;;;;;16.07;14.57;;;;;;;15.32;100.00;99111.91;4978570;28;103105;-75
2021/06/10 02:59:18;;;;;;;11.32;10.35;;;;;;;15.34;100.00;99109.97;4976695;28;102925;-73
2021/06/10 03:01:46;;;;;;;10.23;9.38;;;;;;;15.47;100.00;99110.63;4975070;28;109726;-73
2021/06/10 03:04:15;;;;;;;11.95;10.85;;;;;;;15.33;100.00;99101.13;4969128;28;103602;-75
2021/06/10 03:06:44;;;;;;;12.53;11.43;;;;;;;15.32;100.00;99101.28;4974923;28;103096;-73
2021/06/10 03:09:15;;;;;;;14.05;12.75;;;;;;;15.40;100.00;99104.97;4974704;28;103310;-73
2021/06/10 03:11:44;;;;;;;9.95;9.15;;;;;;;15.47;100.00;99110.63;4966895;28;105032;-74
2021/06/10 03:14:13;;;;;;;10.55;9.65;;;;;;;15.44;100.00;99105.53;5001930;28;110959;-74
2021/06/10 03:16:42;;;;;;;9.98;9.18;;;;;;;15.44;100.00;99103.72;4999411;28;103558;-78
2021/06/10 03:19:10;;;;;;;14.00;12.70;;;;;;;15.33;99.72;99109.13;4992401;28;103444;-78
2021/06/10 03:21:38;;;;;;;12.30;11.10;;;;;;;15.17;100.00;99108.75;4999350;28;104275;-79
2021/06/10 03:24:06;;;;;;;12.38;11.27;;;;;;;15.12;100.00;99105.63;5003592;28;103738;-80
2021/06/10 03:26:35;;;;;;;11.77;10.77;;;;;;;15.19;100.00;99106.78;5001936;28;103482;-79
2021/06/10 03:29:05;;;;;;;11.00;10.00;;;;;;;15.34;100.00;99108.16;5003327;28;103296;-74
2021/06/10 03:31:34;;;;;;;11.30;10.30;;;;;;;15.33;100.00;99113.59;5001641;28;103034;-75
2021/06/10 03:34:03;;;;;;;10.43;9.53;;;;;;;15.25;100.00;99114.25;5004301;28;103883;-74
2021/06/10 03:36:31;;;;;;;14.33;12.90;;;;;;;15.19;100.00;99112.09;5004471;28;103132;-75
2021/06/10 03:38:59;;;;;;;13.47;12.27;;;;;;;15.15;100.00;99109.84;5043216;27;102805;-75
2021/06/10 03:41:27;;;;;;;16.03;14.57;;;;;;;14.91;100.00;99105.59;5044607;27;109085;-74
2021/06/10 03:43:57;;;;;;;13.13;11.90;;;;;;;15.06;100.00;99108.78;5044938;27;103708;-75
2021/06/10 03:46:25;;;;;;;12.00;11.00;;;;;;;15.19;100.00;99114.75;5043474;27;102904;-79
2021/06/10 03:48:52;;;;;;;10.77;9.87;;;;;;;15.32;100.00;99118.09;5043587;27;103167;-77
2021/06/10 03:51:21;;;;;;;11.00;10.10;;;;;;;15.39;100.00;99116.59;5044801;27;103916;-83
2021/06/10 03:53:50;;;;;;;11.00;9.93;;;;;;;15.40;100.00;99110.28;5043135;27;108225;-77
2021/06/10 03:56:17;;;;;;;10.00;9.20;;;;;;;15.37;100.00;99109.69;5040140;27;102627;-78
2021/06/10 03:58:45;;;;;;;9.20;8.40;;;;;;;15.47;100.00;99111.47;5037837;27;103012;-77
2021/06/10 04:01:14;;;;;;;10.23;9.33;;;;;;;15.56;100.00;99112.50;5044382;27;110116;-77
2021/06/10 04:03:41;;;;;;;9.40;8.70;;;;;;;15.55;98.57;99113.50;5039546;27;103740;-84
2021/06/10 04:06:11;;;;;;;12.50;11.37;;;;;;;15.42;98.13;99107.50;5045185;27;102935;-78
2021/06/10 04:08:38;;;;;;;10.43;9.60;;;;;;;15.53;98.64;99115.44;5044822;27;102675;-82
2021/06/10 04:11:06;;;;;;;10.93;10.00;;;;;;;15.48;98.21;99118.50;5043265;27;104469;-78
2021/06/10 04:13:33;;;;;;;13.27;12.07;;;;;;;15.10;100.00;99118.22;5042942;27;103883;-78
2021/06/10 04:16:00;;;;;;;15.33;13.93;;;;;;;15.03;100.00;99111.72;5044592;27;103191;-76
2021/06/10 04:18:29;;;;;;;13.97;12.77;;;;;;;15.22;100.00;99116.31;5044417;27;102858;-78
2021/06/10 04:20:57;;;;;;;14.00;12.70;;;;;;;15.42;100.00;99105.66;5033009;27;105693;-77
2021/06/10 04:23:24;;;;;;;9.80;9.00;;;;;;;15.61;100.00;99112.94;5040365;27;103656;-78
2021/06/10 04:25:52;;;;;;;10.10;9.20;;;;;;;15.73;100.00;99113.72;5038996;27;103394;-77
2021/06/10 04:28:19;;;;;;;10.50;9.60;;;;;;;15.71;100.00;99123.66;5039436;27;103162;-80
2021/06/10 04:30:47;;;;;;;12.87;11.47;;;;;;;15.65;100.00;99120.56;5030506;27;104285;-85
2021/06/10 04:33:14;;;;;;;12.30;11.20;;;;;;;15.76;100.00;99116.09;5028590;27;104169;-84
2021/06/10 04:35:44;;;;;;;12.63;11.57;;;;;;;15.87;100.00;99113.34;5038678;27;103181;-85
2021/06/10 04:38:14;;;;;;;10.87;9.97;;;;;;;15.98;100.00;99110.59;5037276;27;103311;-85
2021/06/10 04:40:41;;;;;;;10.13;9.23;;;;;;;16.12;100.00;99118.22;5037168;27;104532;-84
2021/06/10 04:43:09;;;;;;;9.43;8.70;;;;;;;16.28;100.00;99115.88;5036385;27;103702;-89
2021/06/10 04:45:37;;;;;;;16.65;15.13;;;;;;;16.34;100.00;99123.31;5038968;27;103216;-81
2021/06/10 04:48:05;;;;;;;16.90;15.40;;;;;;;16.28;100.00;99113.19;5034121;27;103052;-81
2021/06/10 04:50:35;;;;;;;13.97;12.67;;;;;;;16.38;100.00;99119.41;5040045;27;103897;-85
2021/06/10 04:53:04;;;;;;;12.60;11.40;;;;;;;16.54;100.00;99114.41;5040912;27;112923;-76
2021/06/10 04:55:32;;;;;;;12.77;11.68;;;;;;;16.53;100.00;99120.72;5035801;27;103472;-82
2021/06/10 04:58:00;;;;;;;16.75;15.25;;;;;;;16.55;100.00;99118.78;5041995;27;103411;-80
2021/06/10 05:00:27;;;;;;;17.83;16.33;;;;;;;16.57;100.00;99115.97;5038988;27;104830;-75
2021/06/10 05:02:55;;;;;;;14.57;13.27;;;;;;;16.62;100.00;99121.72;5035129;27;103669;-75
2021/06/10 05:05:23;;;;;;;13.55;12.45;;;;;;;16.67;100.00;99122.16;5036897;27;103263;-76
2021/06/10 05:07:51;;;;;;;17.23;15.30;;;;;;;16.87;100.00;99121.16;5034475;27;103291;-75
2021/06/10 05:10:20;;;;;;;14.43;13.23;;;;;;;16.96;99.86;99114.16;5033284;27;104546;-75
2021/06/10 05:12:48;;;;;;;13.60;12.45;;;;;;;17.06;99.59;99117.69;5035440;27;103902;-76
2021/06/10 05:15:16;;;;;;;11.80;10.82;;;;;;;17.18;98.72;99120.03;5021904;27;103878;-76
2021/06/10 05:17:44;;;;;;;14.77;13.45;;;;;;;17.29;97.94;99121.72;5040061;27;103434;-77
2021/06/10 05:20:13;;;;;;;13.00;11.82;;;;;;;17.38;97.55;99121.69;5040592;27;103904;-75
2021/06/10 05:22:40;;;;;;;19.83;18.02;;;;;;;17.14;98.70;99124.00;5036142;27;105427;-76
2021/06/10 05:25:09;;;;;;;17.42;15.93;;;;;;;17.18;98.43;99127.19;5037576;27;103255;-76
2021/06/10 05:27:38;;;;;;;14.93;13.63;;;;;;;17.19;99.02;99120.88;5039257;27;103416;-76
2021/06/10 05:30:06;;;;;;;14.43;13.23;;;;;;;17.38;97.60;99120.84;5037682;27;104766;-75
2021/06/10 05:32:34;;;;;;;18.17;16.52;;;;;;;17.07;99.22;99122.00;5036335;27;104145;-76
2021/06/10 05:35:02;;;;;;;13.30;12.20;;;;;;;17.29;99.12;99121.72;5034951;27;103020;-76
2021/06/10 05:37:30;;;;;;;15.95;14.57;;;;;;;17.52;97.18;99115.06;5034292;27;103318;-76
2021/06/10 05:39:57;;;;;;;12.88;11.88;;;;;;;17.69;96.68;99117.00;5036997;27;104958;-76
2021/06/10 05:42:25;;;;;;;12.40;11.25;;;;;;;17.80;95.57;99126.69;5036441;27;103337;-76
2021/06/10 05:44:54;;;;;;;12.45;11.35;;;;;;;17.86;95.03;99121.59;5040261;27;102731;-75
2021/06/10 05:47:21;;;;;;;11.13;10.23;;;;;;;17.89;95.42;99123.13;5040644;27;103314;-76
2021/06/10 05:49:49;;;;;;;11.60;10.60;;;;;;;18.09;94.22;99121.22;5039342;27;103985;-75
2021/06/10 05:52:17;;;;;;;11.27;10.20;;;;;;;18.31;93.48;99115.47;5022033;27;104076;-78
2021/06/10 05:54:45;;;;;;;10.77;9.88;;;;;;;18.49;92.79;99124.41;5040515;27;103382;-77
2021/06/10 05:57:12;;;;;;;15.05;13.75;;;;;;;18.19;93.67;99122.03;5034866;27;103284;-77
2021/06/10 05:59:40;;;;;;;12.95;11.73;;;;;;;18.39;92.97;99115.56;5027870;27;103755;-76
2021/06/10 06:02:09;;;;;;;13.05;11.77;;;;;;;18.57;91.34;99115.63;5038474;27;104842;-77
2021/06/10 06:04:36;;;;;;;16.20;14.73;;;;;;;18.48;90.97;99122.72;5040349;27;103233;-77
2021/06/10 06:07:04;;;;;;;14.60;12.93;;;;;;;18.62;91.57;99129.38;5039655;27;103334;-76
2021/06/10 06:09:32;;;;;;;16.75;15.25;;;;;;;18.71;90.98;99128.50;5037629;27;104415;-76
2021/06/10 06:11:59;;;;;;;12.93;11.82;;;;;;;18.93;90.20;99125.34;5038846;27;104905;-77
2021/06/10 06:14:30;;;;;;;13.48;12.27;;;;;;;18.98;89.70;99129.25;5044109;27;104167;-77
2021/06/10 06:16:59;;;;;;;10.07;9.18;;;;;;;19.11;88.82;99127.03;5045782;27;103867;-76
2021/06/10 06:19:28;;;;;;;10.85;9.95;;;;;;;19.29;87.73;99131.53;5045233;27;104313;-76
2021/06/10 06:21:56;;;;;;;12.80;11.70;;;;;;;19.39;87.64;99132.31;5032881;27;103780;-77
2021/06/10 06:24:23;;;;;;;10.43;9.52;;;;;;;19.48;87.18;99139.44;5043698;27;103016;-76
2021/06/10 06:26:51;;;;;;;11.15;10.23;;;;;;;19.64;87.33;99139.53;5042453;27;103415;-77
2021/06/10 06:29:19;;;;;;;10.68;9.68;;;;;;;19.81;86.60;99133.28;5041908;27;103398;-76
2021/06/10 06:31:46;;;;;;;11.55;10.55;;;;;;;19.73;87.33;99141.28;5046762;27;109342;-77
2021/06/10 06:34:14;;;;;;;13.32;12.15;;;;;;;19.74;86.16;99150.97;5041394;27;103365;-76
2021/06/10 06:36:47;;;;;;;13.07;11.88;;;;;;;19.87;87.51;99143.38;5041193;27;102891;-77
2021/06/10 06:39:19;;;;;;;15.48;14.05;;;;;;;19.99;85.68;99138.56;5039533;27;104406;-77
2021/06/10 06:41:46;;;;;;;13.70;12.27;;;;;;;20.04;86.31;99137.06;5040607;27;103182;-78
2021/06/10 06:44:17;;;;;;;15.02;13.63;;;;;;;20.01;86.08;99148.16;5040840;27;103166;-77
2021/06/10 06:46:44;;;;;;;14.90;13.40;;;;;;;20.07;84.78;99150.16;5042184;27;103641;-77
2021/06/10 06:49:12;;;;;;;13.70;12.27;;;;;;;20.29;83.72;99139.91;5041505;27;103873;-77
2021/06/10 06:51:40;;;;;;;11.77;10.85;;;;;;;20.51;82.87;99139.31;5044123;27;103911;-77
2021/06/10 06:54:09;;;;;;;15.15;13.77;;;;;;;20.43;82.50;99137.47;5044038;27;103144;-76
2021/06/10 06:56:36;;;;;;;11.70;10.82;;;;;;;20.17;85.22;99142.00;5044977;27;103445;-77
2021/06/10 06:59:04;;;;;;;11.82;10.82;;;;;;;20.70;83.80;99136.34;5043394;27;103883;-77
2021/06/10 07:01:32;;;;;;;11.38;10.38;;;;;;;20.84;82.36;99141.09;5040386;27;103449;-77
2021/06/10 07:03:59;;;;;;;14.00;12.50;;;;;;;21.25;79.42;99140.13;5042824;27;103113;-77
2021/06/10 07:06:27;;;;;;;10.95;10.02;;;;;;;21.66;77.82;99148.19;5038279;27;103223;-77
2021/06/10 07:08:57;;;;;;;9.65;8.85;;;;;;;21.73;79.06;99151.88;5043167;27;103944;-77
2021/06/10 07:11:34;;;;;;;12.73;11.60;;;;;;;21.45;78.98;99153.22;5039671;27;103685;-77
2021/06/10 07:14:02;;;;;;;10.52;9.55;;;;;;;21.74;78.20;99150.88;5042319;27;103098;-77
2021/06/10 07:16:30;;;;;;;10.80;9.90;;;;;;;21.87;77.61;99151.19;5051312;27;103249;-77
2021/06/10 07:18:58;;;;;;;11.38;10.38;;;;;;;21.88;75.86;99151.03;5043728;27;103703;-76
2021/06/10 07:21:26;;;;;;;11.68;10.52;;;;;;;22.14;76.09;99142.72;5042867;27;104291;-77
2021/06/10 07:23:55;;;;;;;11.20;10.20;;;;;;;22.20;75.80;99146.59;5043722;27;102923;-78
2021/06/10 07:26:26;;;;;;;13.05;11.77;;;;;;;21.97;76.87;99151.88;5044038;27;103201;-77
2021/06/10 07:28:55;;;;;;;11.00;10.10;;;;;;;22.41;76.10;99149.50;5043154;27;104280;-77
2021/06/10 07:31:23;;;;;;;11.27;10.05;;;;;;;22.79;74.43;99147.84;5042148;27;109124;-77
2021/06/10 07:33:50;;;;;;;11.32;10.43;;;;;;;22.91;74.21;99151.78;5048927;27;102576;-76
2021/06/10 07:36:18;;;;;;;10.02;9.23;;;;;;;23.38;72.07;99155.19;5033915;27;102706;-77
2021/06/10 07:38:46;;;;;;;12.65;11.32;;;;;;;23.51;72.60;99160.81;5052253;27;103937;-77
2021/06/10 07:41:15;;;;;;;10.82;9.82;;;;;;;23.70;71.54;99161.31;5046594;27;105248;-76
2021/06/10 07:43:45;;;;;;;8.85;8.15;;;;;;;23.62;72.36;99162.22;5042667;27;102902;-77
2021/06/10 07:46:14;;;;;;;12.75;10.65;;;;;;;24.04;68.65;99150.84;5042901;27;104295;-77
2021/06/10 07:48:42;;;;;;;11.20;10.23;;;;;;;23.74;70.41;99160.78;5044382;27;104634;-77
2021/06/10 07:51:10;;;;;;;11.75;10.85;;;;;;;23.46;71.65;99156.97;5044284;27;104861;-77
2021/06/10 07:53:38;;;;;;;13.38;12.23;;;;;;;23.63;69.68;99156.63;5042786;27;103060;-76
2021/06/10 07:56:06;;;;;;;10.95;10.05;;;;;;;23.86;69.12;99151.19;5036715;27;103058;-77
2021/06/10 07:58:35;;;;;;;12.43;11.23;;;;;;;24.05;69.24;99166.88;5055691;27;103550;-76
2021/06/10 08:01:03;;;;;;;10.65;9.80;;;;;;;24.16;68.91;99158.34;5044998;27;103724;-78
2021/06/10 08:03:32;;;;;;;11.23;10.23;;;;;;;23.98;67.86;99162.38;5053839;27;103107;-77
2021/06/10 08:06:01;;;;;;;9.35;8.50;;;;;;;24.17;69.21;99161.84;5038141;27;103114;-77
2021/06/10 08:08:28;;;;;;;12.02;10.90;;;;;;;24.52;68.30;99158.41;5044008;27;105382;-76
2021/06/10 08:10:59;;;;;;;13.60;11.05;;;;;;;25.25;65.06;99147.41;5032531;27;103691;-77
2021/06/10 08:13:27;;;;;;;12.07;11.07;;;;;;;24.26;66.66;99157.19;5040591;27;103206;-78
2021/06/10 08:15:54;;;;;;;15.38;13.98;;;;;;;23.08;69.38;99164.13;5039902;27;103129;-76
2021/06/10 08:18:22;;;;;;;14.38;13.18;;;;;;;23.82;68.90;99159.84;5039409;27;104511;-77
2021/06/10 08:20:51;;;;;;;13.55;11.55;;;;;;;24.54;68.07;99150.94;5052585;27;104738;-77
2021/06/10 08:23:19;;;;;;;13.23;11.85;;;;;;;25.42;63.71;99144.44;5045038;27;103836;-77
2021/06/10 08:25:46;;;;;;;13.55;12.45;;;;;;;25.79;61.88;99144.16;5041224;27;103828;-77
2021/06/10 08:28:14;;;;;;;13.20;12.00;;;;;;;26.03;62.24;99132.00;5035011;27;104296;-78
2021/06/10 08:30:42;;;;;;;12.43;11.30;;;;;;;26.66;62.66;99131.75;5041117;27;103927;-77
2021/06/10 08:33:10;;;;;;;8.32;7.65;;;;;;;27.44;59.26;99138.44;5036471;27;103022;-77
2021/06/10 08:35:38;;;;;;;9.32;8.52;;;;;;;27.57;60.56;99141.13;5042924;27;102979;-77
2021/06/10 08:38:08;;;;;;;12.02;11.02;;;;;;;27.18;59.21;99147.34;5041312;27;104900;-78
2021/06/10 08:40:37;;;;;;;12.45;11.35;;;;;;;26.78;58.96;99134.72;5041816;27;106288;-78
2021/06/10 08:43:06;;;;;;;14.40;13.00;;;;;;;25.02;63.91;99141.34;5040212;27;103119;-77
2021/06/10 08:45:34;;;;;;;11.95;10.73;;;;;;;26.18;63.66;99133.59;5040093;27;103246;-77
2021/06/10 08:48:02;;;;;;;13.32;12.23;;;;;;;27.16;60.45;99132.31;5041653;27;104930;-77
2021/06/10 08:50:32;;;;;;;13.27;12.07;;;;;;;27.06;58.85;99133.53;5041946;27;103724;-78
2021/06/10 08:53:01;;;;;;;11.48;10.55;;;;;;;27.04;61.13;99134.78;5041329;27;103037;-77
2021/06/10 08:55:31;;;;;;;13.85;12.65;;;;;;;26.67;60.29;99132.56;5040524;27;103397;-77
2021/06/10 08:58:00;;;;;;;13.68;12.48;;;;;;;27.20;60.31;99133.59;5041722;27;106185;-77
2021/06/10 09:00:29;;;;;;;13.68;12.57;;;;;;;27.87;56.33;99131.53;5037708;27;104849;-77
2021/06/10 09:02:58;;;;;;;14.68;13.27;;;;;;;26.84;57.74;99134.75;5035282;27;103358;-77
2021/06/10 09:05:28;;;;;;;15.18;13.85;;;;;;;26.37;59.55;99140.16;5039446;27;104007;-75
2021/06/10 09:07:58;;;;;;;14.98;13.50;;;;;;;26.86;58.08;99126.41;5038342;27;103914;-75
2021/06/10 09:10:27;;;;;;;11.90;10.93;;;;;;;27.14;57.77;99134.41;5041519;27;103679;-75
2021/06/10 09:12:58;;;;;;;12.25;11.30;;;;;;;27.31;58.00;99135.69;5041825;27;104135;-75
2021/06/10 09:15:29;;;;;;;13.80;12.68;;;;;;;27.45;55.87;99137.41;5037994;27;105345;-75
2021/06/10 09:18:00;;;;;;;14.27;13.13;;;;;;;26.58;58.96;99139.22;5040987;27;104050;-75
2021/06/10 09:20:32;;;;;;;10.63;9.73;;;;;;;28.57;56.24;99133.47;5041567;27;104266;-75
2021/06/10 09:23:18;;;;;;;13.10;12.00;;;;;;;28.85;53.48;99127.69;5042029;27;102953;-74
2021/06/10 09:25:49;;;;;;;11.73;10.82;;;;;;;29.05;55.00;99136.59;5040089;27;103040;-75
2021/06/10 09:28:18;;;;;;;9.85;9.05;;;;;;;29.19;55.02;99126.44;5041241;27;103565;-75
2021/06/10 09:30:49;;;;;;;15.50;14.07;;;;;;;27.10;56.74;99133.97;5041042;27;103800;-75
2021/06/10 09:33:19;;;;;;;15.07;13.73;;;;;;;27.56;57.96;99131.34;5040690;27;102908;-75
2021/06/10 09:35:48;;;;;;;14.45;13.25;;;;;;;27.24;57.68;99132.94;5041690;27;102892;-76
2021/06/10 09:38:19;;;;;;;13.55;12.35;;;;;;;28.14;57.06;99127.75;5040378;27;111506;-75
2021/06/10 09:40:48;;;;;;;13.68;12.57;;;;;;;26.89;59.04;99131.44;5041439;27;103799;-75
2021/06/10 09:43:16;;;;;;;13.43;12.32;;;;;;;28.18;55.64;99128.97;5041449;27;103060;-76
2021/06/10 09:45:51;;;;;;;14.88;13.57;;;;;;;27.41;54.48;99125.28;5039672;27;103260;-75
2021/06/10 09:48:31;;;;;;;14.07;12.75;;;;;;;27.59;55.18;99125.50;5041291;27;104542;-75
2021/06/10 09:51:00;;;;;;;9.70;9.00;;;;;;;28.02;56.52;99121.25;5041357;27;103671;-79
2021/06/10 09:53:29;;;;;;;13.05;11.98;;;;;;;28.68;53.98;99113.78;5040342;27;103252;-78
2021/06/10 09:55:58;;;;;;;12.07;10.95;;;;;;;28.49;56.14;99113.84;5033101;27;103221;-77
2021/06/10 09:58:39;;;;;;;12.63;11.52;;;;;;;28.65;54.30;99114.22;5039925;27;103798;-78
2021/06/10 10:01:11;;;;;;;13.60;12.45;;;;;;;27.94;54.58;99110.63;5040803;27;104010;-78
2021/06/10 10:03:41;;;;;;;13.20;11.98;;;;;;;28.30;56.39;99112.84;5041320;27;103035;-78
2021/06/10 10:06:19;;;;;;;10.23;9.25;;;;;;;29.14;54.39;99094.44;5028489;27;103321;-78
2021/06/10 10:08:49;;;;;;;12.82;11.82;;;;;;;28.70;52.03;99097.25;5039877;27;105064;-78
2021/06/10 10:11:17;;;;;;;15.85;14.50;;;;;;;27.46;55.57;99101.06;5040526;27;103865;-78
2021/06/10 10:13:47;;;;;;;14.10;13.00;;;;;;;28.02;56.49;99096.81;5039642;27;103047;-78
2021/06/10 10:16:21;;;;;;;14.02;12.57;;;;;;;28.63;55.90;99088.31;5036699;27;103287;-78
2021/06/10 10:18:50;;;;;;;15.00;13.70;;;;;;;29.28;51.47;99090.59;5040818;27;104021;-77
2021/06/10 10:21:25;;;;;;;15.18;13.88;;;;;;;27.61;56.17;99098.97;5040625;27;112200;-77
2021/06/10 10:23:55;;;;;;;13.07;12.13;;;;;;;27.45;55.85;99088.56;5039869;27;102901;-78
2021/06/10 10:26:23;;;;;;;11.57;10.48;;;;;;;29.18;53.49;99086.69;5036069;27;103284;-80
2021/06/10 10:28:51;;;;;;;14.25;13.15;;;;;;;27.88;54.45;99088.91;5040294;27;104048;-78
2021/06/10 10:31:21;;;;;;;15.23;14.02;;;;;;;28.48;50.83;99085.00;5041751;27;103997;-78
2021/06/10 10:33:49;;;;;;;14.13;13.02;;;;;;;28.23;53.45;99082.16;5038348;27;103307;-77
2021/06/10 10:36:26;;;;;;;14.05;12.95;;;;;;;29.15;49.61;99077.09;5044691;27;103115;-78
2021/06/10 10:38:58;;;;;;;12.00;11.10;;;;;;;29.70;49.35;99078.09;5044167;27;104433;-77
2021/06/10 10:41:26;;;;;;;17.13;15.82;;;;;;;28.84;49.04;99079.81;5043577;27;109746;-77
2021/06/10 10:44:21;;;;;;;13.98;12.82;;;;;;;29.31;52.34;99068.41;5043804;27;103442;-77
2021/06/10 10:47:06;;;;;;;15.30;14.10;;;;;;;29.30;52.56;99064.03;5040711;27;103524;-78
2021/06/10 10:49:45;;;;;;;15.27;14.07;;;;;;;28.51;55.42;99073.69;5054825;27;103539;-78
2021/06/10 10:52:30;;;;;;;11.68;10.75;;;;;;;29.36;51.40;99056.03;5042175;27;103837;-78
2021/06/10 10:55:14;;;;;;;13.07;12.02;;;;;;;29.70;51.21;99058.22;5041423;27;102979;-78
2021/06/10 10:57:44;;;;;;;15.13;13.93;;;;;;;28.68;51.64;99059.41;5041913;27;103642;-77
2021/06/10 11:00:20;;;;;;;14.60;13.40;;;;;;;29.47;49.86;99063.47;5030873;27;104596;-74
2021/06/10 11:03:16;;;;;;;11.50;10.60;;;;;;;29.68;48.98;99049.44;5028820;27;104365;-77
2021/06/10 11:05:44;;;;;;;13.60;12.35;;;;;;;30.17;48.90;99049.34;5036828;27;103243;-77
2021/06/10 11:08:12;;;;;;;11.38;10.48;;;;;;;30.61;49.14;99039.16;5040034;27;104180;-77
2021/06/10 11:11:01;;;;;;;15.90;14.70;;;;;;;28.74;50.23;99046.84;5040525;27;104513;-78
2021/06/10 11:13:31;;;;;;;15.07;13.68;;;;;;;29.46;49.76;99040.03;4993964;27;107695;-75
2021/06/10 11:16:02;;;;;;;14.05;12.82;;;;;;;30.25;48.50;99040.88;5031871;27;103033;-74
2021/06/10 11:18:59;;;;;;;13.00;12.00;;;;;;;30.17;47.69;99043.91;5023612;27;103457;-85
2021/06/10 11:21:52;;;;;;;12.60;11.30;;;;;;;30.00;49.10;99037.41;5022936;27;105530;-75